sensor_id;sensor_type;location;lat;lon;timestamp;pressure;altitude;pressure_sealevel;temperature;humidity
58243;BME280;50118;53.232;8.252;2024-03-02T00:02:06;100175.97;;;4.69;100.00
58243;BME280;50118;53.232;8.252;2024-03-02T00:04:32;100177.31;;;4.63;100.00
58243;BME280;50118;53.232;8.252;2024-03-02T00:06:57;100178.03;;;4.77;100.00
58243;BME280;50118;53.232;8.252;2024-03-02T00:09:23;100175.03;;;4.70;100.00
58243;BME280;50118;53.232;8.252;2024-03-02T00:11:48;100175.59;;;4.85;100.00
58243;BME280;50118;53.232;8.252;2024-03-02T00:14:15;100173.06;;;4.83;100.00
58243;BME280;50118;53.232;8.252;2024-03-02T00:16:40;100165.91;;;4.74;100.00
58243;BME280;50118;53.232;8.252;2024-03-02T00:19:06;100164.69;;;4.78;100.00
58243;BME280;50118;53.232;8.252;2024-03-02T00:21:32;100166.63;;;4.76;100.00
58243;BME280;50118;53.232;8.252;2024-03-02T00:23:59;100166.84;;;4.73;100.00
58243;BME280;50118;53.232;8.252;2024-03-02T00:26:25;100171.31;;;4.73;100.00
58243;BME280;50118;53.232;8.252;2024-03-02T00:28:54;100166.16;;;4.71;100.00
58243;BME280;50118;53.232;8.252;2024-03-02T00:31:22;100162.31;;;4.64;100.00
58243;BME280;50118;53.232;8.252;2024-03-02T00:33:48;100165.06;;;4.74;100.00
58243;BME280;50118;53.232;8.252;2024-03-02T00:36:15;100158.72;;;4.65;100.00
58243;BME280;50118;53.232;8.252;2024-03-02T00:38:47;100153.53;;;4.75;100.00
58243;BME280;50118;53.232;8.252;2024-03-02T00:41:21;100154.53;;;4.62;100.00
58243;BME280;50118;53.232;8.252;2024-03-02T00:44:04;100150.47;;;4.58;100.00
58243;BME280;50118;53.232;8.252;2024-03-02T00:46:41;100154.16;;;4.56;100.00
58243;BME280;50118;53.232;8.252;2024-03-02T00:49:18;100155.38;;;4.52;100.00
58243;BME280;50118;53.232;8.252;2024-03-02T00:51:50;100155.38;;;4.40;100.00
58243;BME280;50118;53.232;8.252;2024-03-02T00:54:20;100153.19;;;4.34;100.00
58243;BME280;50118;53.232;8.252;2024-03-02T00:56:47;100149.84;;;4.21;100.00
58243;BME280;50118;53.232;8.252;2024-03-02T00:59:12;100146.84;;;4.14;100.00
58243;BME280;50118;53.232;8.252;2024-03-02T01:01:37;100137.63;;;4.20;100.00
58243;BME280;50118;53.232;8.252;2024-03-02T01:04:03;100149.50;;;4.14;100.00
58243;BME280;50118;53.232;8.252;2024-03-02T01:06:29;100148.63;;;4.14;100.00
58243;BME280;50118;53.232;8.252;2024-03-02T01:08:55;100150.78;;;4.08;100.00
58243;BME280;50118;53.232;8.252;2024-03-02T01:11:20;100152.09;;;4.03;100.00
58243;BME280;50118;53.232;8.252;2024-03-02T01:13:49;100151.50;;;3.99;100.00
58243;BME280;50118;53.232;8.252;2024-03-02T01:16:14;100143.09;;;3.94;100.00
58243;BME280;50118;53.232;8.252;2024-03-02T01:18:41;100144.78;;;3.95;100.00
58243;BME280;50118;53.232;8.252;2024-03-02T01:21:07;100141.03;;;3.86;100.00
58243;BME280;50118;53.232;8.252;2024-03-02T01:23:32;100136.84;;;3.84;100.00
58243;BME280;50118;53.232;8.252;2024-03-02T01:25:58;100144.28;;;3.79;100.00
58243;BME280;50118;53.232;8.252;2024-03-02T01:28:23;100135.41;;;3.80;100.00
58243;BME280;50118;53.232;8.252;2024-03-02T01:30:49;100128.09;;;3.72;100.00
58243;BME280;50118;53.232;8.252;2024-03-02T01:33:16;100124.75;;;3.70;100.00
58243;BME280;50118;53.232;8.252;2024-03-02T01:35:41;100128.19;;;3.70;100.00
58243;BME280;50118;53.232;8.252;2024-03-02T01:38:06;100120.53;;;3.67;100.00
58243;BME280;50118;53.232;8.252;2024-03-02T01:40:34;100122.72;;;3.73;100.00
58243;BME280;50118;53.232;8.252;2024-03-02T01:42:59;100123.66;;;3.72;100.00
58243;BME280;50118;53.232;8.252;2024-03-02T01:45:25;100119.53;;;3.57;100.00
58243;BME280;50118;53.232;8.252;2024-03-02T01:47:50;100120.63;;;3.54;100.00
58243;BME280;50118;53.232;8.252;2024-03-02T01:50:25;100109.22;;;3.43;100.00
58243;BME280;50118;53.232;8.252;2024-03-02T01:52:50;100108.25;;;3.44;100.00
58243;BME280;50118;53.232;8.252;2024-03-02T01:55:16;100119.25;;;3.38;100.00
58243;BME280;50118;53.232;8.252;2024-03-02T01:57:41;100109.16;;;3.31;100.00
58243;BME280;50118;53.232;8.252;2024-03-02T02:00:08;100117.00;;;3.20;100.00
58243;BME280;50118;53.232;8.252;2024-03-02T02:02:35;100107.38;;;3.08;100.00
58243;BME280;50118;53.232;8.252;2024-03-02T02:05:00;100111.22;;;3.04;100.00
58243;BME280;50118;53.232;8.252;2024-03-02T02:07:25;100105.72;;;3.07;100.00
58243;BME280;50118;53.232;8.252;2024-03-02T02:09:51;100108.38;;;3.18;100.00
58243;BME280;50118;53.232;8.252;2024-03-02T02:12:16;100106.13;;;3.13;100.00
58243;BME280;50118;53.232;8.252;2024-03-02T02:14:48;100099.38;;;3.09;100.00
58243;BME280;50118;53.232;8.252;2024-03-02T02:17:15;100102.72;;;3.11;100.00
58243;BME280;50118;53.232;8.252;2024-03-02T02:19:41;100093.72;;;3.03;100.00
58243;BME280;50118;53.232;8.252;2024-03-02T02:22:07;100093.28;;;3.09;100.00
58243;BME280;50118;53.232;8.252;2024-03-02T02:24:33;100095.22;;;3.18;100.00
58243;BME280;50118;53.232;8.252;2024-03-02T02:26:58;100084.69;;;3.07;100.00
58243;BME280;50118;53.232;8.252;2024-03-02T02:29:24;100071.53;;;3.07;100.00
58243;BME280;50118;53.232;8.252;2024-03-02T02:31:49;100076.50;;;2.98;100.00
58243;BME280;50118;53.232;8.252;2024-03-02T02:34:14;100076.28;;;3.02;100.00
58243;BME280;50118;53.232;8.252;2024-03-02T02:36:41;100060.50;;;3.13;100.00
58243;BME280;50118;53.232;8.252;2024-03-02T02:39:09;100061.25;;;3.15;100.00
58243;BME280;50118;53.232;8.252;2024-03-02T02:41:36;100058.25;;;3.08;100.00
58243;BME280;50118;53.232;8.252;2024-03-02T02:44:01;100055.84;;;3.16;100.00
58243;BME280;50118;53.232;8.252;2024-03-02T02:46:27;100050.25;;;3.21;100.00
58243;BME280;50118;53.232;8.252;2024-03-02T02:48:52;100061.41;;;3.25;100.00
58243;BME280;50118;53.232;8.252;2024-03-02T02:51:19;100066.38;;;3.16;100.00
58243;BME280;50118;53.232;8.252;2024-03-02T02:53:44;100061.00;;;3.07;100.00
58243;BME280;50118;53.232;8.252;2024-03-02T02:56:10;100054.53;;;3.11;100.00
58243;BME280;50118;53.232;8.252;2024-03-02T02:58:35;100050.47;;;3.07;100.00
58243;BME280;50118;53.232;8.252;2024-03-02T03:01:01;100047.22;;;3.03;100.00
58243;BME280;50118;53.232;8.252;2024-03-02T03:03:26;100043.63;;;3.04;100.00
58243;BME280;50118;53.232;8.252;2024-03-02T03:05:52;100037.75;;;3.01;100.00
58243;BME280;50118;53.232;8.252;2024-03-02T03:08:17;100045.75;;;2.99;100.00
58243;BME280;50118;53.232;8.252;2024-03-02T03:10:43;100049.28;;;3.11;100.00
58243;BME280;50118;53.232;8.252;2024-03-02T03:13:08;100043.78;;;3.14;100.00
58243;BME280;50118;53.232;8.252;2024-03-02T03:15:37;100036.06;;;2.99;100.00
58243;BME280;50118;53.232;8.252;2024-03-02T03:18:06;100043.06;;;2.88;100.00
58243;BME280;50118;53.232;8.252;2024-03-02T03:20:33;100037.75;;;3.01;100.00
58243;BME280;50118;53.232;8.252;2024-03-02T03:22:59;100032.50;;;3.01;100.00
58243;BME280;50118;53.232;8.252;2024-03-02T03:25:25;100028.91;;;3.02;100.00
58243;BME280;50118;53.232;8.252;2024-03-02T03:27:50;100022.41;;;2.94;100.00
58243;BME280;50118;53.232;8.252;2024-03-02T03:30:18;100023.41;;;3.05;100.00
58243;BME280;50118;53.232;8.252;2024-03-02T03:32:44;100020.78;;;3.05;100.00
58243;BME280;50118;53.232;8.252;2024-03-02T03:35:09;100021.97;;;3.01;100.00
58243;BME280;50118;53.232;8.252;2024-03-02T03:37:35;100021.97;;;3.01;100.00
58243;BME280;50118;53.232;8.252;2024-03-02T03:40:01;100018.84;;;2.95;100.00
58243;BME280;50118;53.232;8.252;2024-03-02T03:42:28;100018.84;;;2.95;100.00
58243;BME280;50118;53.232;8.252;2024-03-02T03:44:53;100016.94;;;2.97;100.00
58243;BME280;50118;53.232;8.252;2024-03-02T03:47:19;100030.94;;;2.98;100.00
58243;BME280;50118;53.232;8.252;2024-03-02T03:49:45;100034.63;;;2.95;100.00
58243;BME280;50118;53.232;8.252;2024-03-02T03:52:11;100045.09;;;3.08;100.00
58243;BME280;50118;53.232;8.252;2024-03-02T03:54:36;100041.97;;;3.03;100.00
58243;BME280;50118;53.232;8.252;2024-03-02T03:57:03;100041.09;;;3.03;100.00
58243;BME280;50118;53.232;8.252;2024-03-02T03:59:29;100034.91;;;3.04;100.00
58243;BME280;50118;53.232;8.252;2024-03-02T04:01:54;100039.78;;;2.97;100.00
58243;BME280;50118;53.232;8.252;2024-03-02T04:04:20;100049.56;;;2.95;100.00
58243;BME280;50118;53.232;8.252;2024-03-02T04:06:45;100045.84;;;2.86;100.00
58243;BME280;50118;53.232;8.252;2024-03-02T04:09:11;100050.72;;;2.79;100.00
58243;BME280;50118;53.232;8.252;2024-03-02T04:11:36;100049.34;;;2.74;100.00
58243;BME280;50118;53.232;8.252;2024-03-02T04:14:01;100062.59;;;2.72;100.00
58243;BME280;50118;53.232;8.252;2024-03-02T04:16:27;100047.91;;;2.70;100.00
58243;BME280;50118;53.232;8.252;2024-03-02T04:18:54;100054.06;;;2.57;100.00
58243;BME280;50118;53.232;8.252;2024-03-02T04:21:19;100050.66;;;2.55;100.00
58243;BME280;50118;53.232;8.252;2024-03-02T04:23:45;100051.03;;;2.51;100.00
58243;BME280;50118;53.232;8.252;2024-03-02T04:26:10;100051.84;;;2.51;100.00
58243;BME280;50118;53.232;8.252;2024-03-02T04:28:36;100053.75;;;2.49;100.00
58243;BME280;50118;53.232;8.252;2024-03-02T04:31:01;100053.44;;;2.54;100.00
58243;BME280;50118;53.232;8.252;2024-03-02T04:33:27;100061.66;;;2.49;100.00
58243;BME280;50118;53.232;8.252;2024-03-02T04:35:52;100068.88;;;2.58;100.00
58243;BME280;50118;53.232;8.252;2024-03-02T04:38:17;100058.69;;;2.54;100.00
58243;BME280;50118;53.232;8.252;2024-03-02T04:40:43;100064.31;;;2.60;100.00
58243;BME280;50118;53.232;8.252;2024-03-02T04:43:08;100066.69;;;2.52;100.00
58243;BME280;50118;53.232;8.252;2024-03-02T04:45:34;100067.53;;;2.40;100.00
58243;BME280;50118;53.232;8.252;2024-03-02T04:48:00;100068.50;;;2.39;100.00
58243;BME280;50118;53.232;8.252;2024-03-02T04:50:25;100072.69;;;2.41;100.00
58243;BME280;50118;53.232;8.252;2024-03-02T04:52:51;100071.44;;;2.47;100.00
58243;BME280;50118;53.232;8.252;2024-03-02T04:55:16;100076.44;;;2.50;100.00
58243;BME280;50118;53.232;8.252;2024-03-02T04:57:41;100074.28;;;2.44;100.00
58243;BME280;50118;53.232;8.252;2024-03-02T05:00:07;100081.34;;;2.43;100.00
58243;BME280;50118;53.232;8.252;2024-03-02T05:02:34;100077.03;;;2.42;100.00
58243;BME280;50118;53.232;8.252;2024-03-02T05:04:59;100082.78;;;2.48;100.00
58243;BME280;50118;53.232;8.252;2024-03-02T05:07:25;100074.78;;;2.49;100.00
58243;BME280;50118;53.232;8.252;2024-03-02T05:09:50;100073.50;;;2.55;100.00
58243;BME280;50118;53.232;8.252;2024-03-02T05:12:16;100071.84;;;2.54;100.00
58243;BME280;50118;53.232;8.252;2024-03-02T05:15:02;100075.38;;;2.66;100.00
58243;BME280;50118;53.232;8.252;2024-03-02T05:17:27;100074.34;;;2.55;100.00
58243;BME280;50118;53.232;8.252;2024-03-02T05:19:53;100072.16;;;2.49;100.00
58243;BME280;50118;53.232;8.252;2024-03-02T05:22:18;100074.34;;;2.55;100.00
58243;BME280;50118;53.232;8.252;2024-03-02T05:24:43;100075.38;;;2.66;100.00
58243;BME280;50118;53.232;8.252;2024-03-02T05:27:09;100077.25;;;2.64;100.00
58243;BME280;50118;53.232;8.252;2024-03-02T05:29:34;100078.94;;;2.65;100.00
58243;BME280;50118;53.232;8.252;2024-03-02T05:32:00;100094.13;;;2.61;100.00
58243;BME280;50118;53.232;8.252;2024-03-02T05:34:25;100085.44;;;2.72;100.00
58243;BME280;50118;53.232;8.252;2024-03-02T05:36:50;100085.66;;;2.69;100.00
58243;BME280;50118;53.232;8.252;2024-03-02T05:39:16;100085.44;;;2.72;100.00
58243;BME280;50118;53.232;8.252;2024-03-02T05:41:41;100091.78;;;2.69;100.00
58243;BME280;50118;53.232;8.252;2024-03-02T05:44:07;100090.28;;;2.78;100.00
58243;BME280;50118;53.232;8.252;2024-03-02T05:46:32;100087.13;;;2.73;100.00
58243;BME280;50118;53.232;8.252;2024-03-02T05:48:59;100086.34;;;2.59;100.00
58243;BME280;50118;53.232;8.252;2024-03-02T05:51:25;100088.25;;;2.57;100.00
58243;BME280;50118;53.232;8.252;2024-03-02T05:53:50;100092.00;;;2.53;100.00
58243;BME280;50118;53.232;8.252;2024-03-02T05:56:15;100093.31;;;2.48;100.00
58243;BME280;50118;53.232;8.252;2024-03-02T05:58:41;100089.09;;;2.45;100.00
58243;BME280;50118;53.232;8.252;2024-03-02T06:01:26;100079.97;;;2.38;100.00
58243;BME280;50118;53.232;8.252;2024-03-02T06:03:57;100089.53;;;2.39;100.00
58243;BME280;50118;53.232;8.252;2024-03-02T06:06:24;100094.13;;;2.48;100.00
58243;BME280;50118;53.232;8.252;2024-03-02T06:08:50;100102.22;;;2.45;100.00
58243;BME280;50118;53.232;8.252;2024-03-02T06:11:15;100103.81;;;2.35;100.00
58243;BME280;50118;53.232;8.252;2024-03-02T06:13:41;100099.66;;;2.19;100.00
58243;BME280;50118;53.232;8.252;2024-03-02T06:16:06;100098.59;;;2.09;100.00
58243;BME280;50118;53.232;8.252;2024-03-02T06:18:33;100097.88;;;2.07;100.00
58243;BME280;50118;53.232;8.252;2024-03-02T06:20:59;100100.31;;;2.10;100.00
58243;BME280;50118;53.232;8.252;2024-03-02T06:23:26;100095.78;;;2.12;100.00
58243;BME280;50118;53.232;8.252;2024-03-02T06:25:51;100104.69;;;2.22;100.00
58243;BME280;50118;53.232;8.252;2024-03-02T06:28:17;100106.19;;;2.27;100.00
58243;BME280;50118;53.232;8.252;2024-03-02T06:30:42;100105.22;;;2.28;100.00
58243;BME280;50118;53.232;8.252;2024-03-02T06:33:09;100113.09;;;2.40;100.00
58243;BME280;50118;53.232;8.252;2024-03-02T06:35:34;100120.13;;;2.40;100.00
58243;BME280;50118;53.232;8.252;2024-03-02T06:38:00;100125.47;;;2.51;100.00
58243;BME280;50118;53.232;8.252;2024-03-02T06:40:26;100123.78;;;2.50;100.00
58243;BME280;50118;53.232;8.252;2024-03-02T06:42:52;100123.47;;;2.55;100.00
58243;BME280;50118;53.232;8.252;2024-03-02T06:45:17;100124.69;;;2.62;100.00
58243;BME280;50118;53.232;8.252;2024-03-02T06:47:42;100131.75;;;2.61;100.00
58243;BME280;50118;53.232;8.252;2024-03-02T06:50:08;100134.69;;;2.70;100.00
58243;BME280;50118;53.232;8.252;2024-03-02T06:52:34;100135.91;;;2.77;100.00
58243;BME280;50118;53.232;8.252;2024-03-02T06:55:00;100140.94;;;2.93;100.00
58243;BME280;50118;53.232;8.252;2024-03-02T06:57:25;100137.53;;;3.04;100.00
58243;BME280;50118;53.232;8.252;2024-03-02T06:59:51;100140.44;;;3.12;100.00
58243;BME280;50118;53.232;8.252;2024-03-02T07:02:19;100143.47;;;3.18;100.00
58243;BME280;50118;53.232;8.252;2024-03-02T07:04:45;100144.19;;;3.21;100.00
58243;BME280;50118;53.232;8.252;2024-03-02T07:07:10;100137.19;;;3.32;100.00
58243;BME280;50118;53.232;8.252;2024-03-02T07:09:36;100145.22;;;3.42;100.00
58243;BME280;50118;53.232;8.252;2024-03-02T07:12:01;100148.63;;;3.55;100.00
58243;BME280;50118;53.232;8.252;2024-03-02T07:14:27;100146.63;;;3.70;100.00
58243;BME280;50118;53.232;8.252;2024-03-02T07:17:12;100140.66;;;3.80;100.00
58243;BME280;50118;53.232;8.252;2024-03-02T07:19:38;100152.22;;;3.90;100.00
58243;BME280;50118;53.232;8.252;2024-03-02T07:22:07;100154.28;;;4.09;100.00
58243;BME280;50118;53.232;8.252;2024-03-02T07:24:42;100153.06;;;4.13;100.00
58243;BME280;50118;53.232;8.252;2024-03-02T07:27:08;100170.47;;;4.16;100.00
58243;BME280;50118;53.232;8.252;2024-03-02T07:29:34;100169.50;;;4.17;100.00
58243;BME280;50118;53.232;8.252;2024-03-02T07:31:59;100159.91;;;4.27;100.00
58243;BME280;50118;53.232;8.252;2024-03-02T07:34:25;100150.56;;;4.34;100.00
58243;BME280;50118;53.232;8.252;2024-03-02T07:36:51;100162.09;;;4.44;100.00
58243;BME280;50118;53.232;8.252;2024-03-02T07:39:17;100162.56;;;4.61;100.00
58243;BME280;50118;53.232;8.252;2024-03-02T07:41:42;100160.97;;;4.70;100.00
58243;BME280;50118;53.232;8.252;2024-03-02T07:44:09;100173.59;;;4.77;100.00
58243;BME280;50118;53.232;8.252;2024-03-02T07:46:34;100174.16;;;4.92;100.00
58243;BME280;50118;53.232;8.252;2024-03-02T07:49:00;100167.84;;;5.16;100.00
58243;BME280;50118;53.232;8.252;2024-03-02T07:51:25;100173.66;;;5.42;100.00
58243;BME280;50118;53.232;8.252;2024-03-02T07:53:51;100157.88;;;5.84;100.00
58243;BME280;50118;53.232;8.252;2024-03-02T07:56:16;100179.88;;;6.06;100.00
58243;BME280;50118;53.232;8.252;2024-03-02T07:58:48;100177.44;;;6.45;100.00
58243;BME280;50118;53.232;8.252;2024-03-02T08:01:14;100189.50;;;6.68;100.00
58243;BME280;50118;53.232;8.252;2024-03-02T08:03:40;100194.38;;;7.04;100.00
58243;BME280;50118;53.232;8.252;2024-03-02T08:06:06;100202.13;;;7.75;100.00
58243;BME280;50118;53.232;8.252;2024-03-02T08:08:31;100198.28;;;8.17;100.00
58243;BME280;50118;53.232;8.252;2024-03-02T08:10:57;100197.00;;;8.31;100.00
58243;BME280;50118;53.232;8.252;2024-03-02T08:13:22;100191.13;;;8.84;100.00
58243;BME280;50118;53.232;8.252;2024-03-02T08:15:48;100189.63;;;9.00;100.00
58243;BME280;50118;53.232;8.252;2024-03-02T08:18:13;100197.56;;;9.27;100.00
58243;BME280;50118;53.232;8.252;2024-03-02T08:20:41;100198.03;;;9.77;100.00
58243;BME280;50118;53.232;8.252;2024-03-02T08:23:07;100198.41;;;10.00;100.00
58243;BME280;50118;53.232;8.252;2024-03-02T08:25:33;100205.16;;;9.94;100.00
58243;BME280;50118;53.232;8.252;2024-03-02T08:27:59;100212.16;;;9.95;100.00
58243;BME280;50118;53.232;8.252;2024-03-02T08:30:24;100209.47;;;9.69;100.00
58243;BME280;50118;53.232;8.252;2024-03-02T08:32:49;100211.16;;;10.14;100.00
58243;BME280;50118;53.232;8.252;2024-03-02T08:35:15;100215.59;;;10.32;100.00
58243;BME280;50118;53.232;8.252;2024-03-02T08:37:41;100213.19;;;10.20;100.00
58243;BME280;50118;53.232;8.252;2024-03-02T08:40:07;100215.47;;;10.15;100.00
58243;BME280;50118;53.232;8.252;2024-03-02T08:42:33;100227.47;;;9.93;100.00
58243;BME280;50118;53.232;8.252;2024-03-02T08:44:59;100214.44;;;9.72;100.00
58243;BME280;50118;53.232;8.252;2024-03-02T08:47:26;100223.66;;;9.78;100.00
58243;BME280;50118;53.232;8.252;2024-03-02T08:49:52;100224.97;;;9.56;100.00
58243;BME280;50118;53.232;8.252;2024-03-02T08:52:17;100227.31;;;9.59;100.00
58243;BME280;50118;53.232;8.252;2024-03-02T08:54:43;100221.13;;;9.94;100.00
58243;BME280;50118;53.232;8.252;2024-03-02T08:57:08;100226.31;;;9.78;100.00
58243;BME280;50118;53.232;8.252;2024-03-02T08:59:34;100223.78;;;9.94;100.00
58243;BME280;50118;53.232;8.252;2024-03-02T09:01:59;100239.59;;;9.60;100.00
58243;BME280;50118;53.232;8.252;2024-03-02T09:04:25;100243.38;;;10.11;100.00
58243;BME280;50118;53.232;8.252;2024-03-02T09:06:50;100235.72;;;10.08;100.00
58243;BME280;50118;53.232;8.252;2024-03-02T09:09:16;100243.47;;;10.37;100.00
58243;BME280;50118;53.232;8.252;2024-03-02T09:11:41;100245.16;;;10.46;100.00
58243;BME280;50118;53.232;8.252;2024-03-02T09:14:06;100254.94;;;10.38;100.00
58243;BME280;50118;53.232;8.252;2024-03-02T09:16:32;100253.47;;;10.43;100.00
58243;BME280;50118;53.232;8.252;2024-03-02T09:18:58;100249.00;;;10.26;100.00
58243;BME280;50118;53.232;8.252;2024-03-02T09:21:23;100245.75;;;10.14;100.00
58243;BME280;50118;53.232;8.252;2024-03-02T09:23:50;100240.00;;;10.45;100.00
58243;BME280;50118;53.232;8.252;2024-03-02T09:26:16;100246.25;;;10.18;100.00
58243;BME280;50118;53.232;8.252;2024-03-02T09:28:44;100251.03;;;10.76;100.00
58243;BME280;50118;53.232;8.252;2024-03-02T09:31:10;100251.78;;;10.95;100.00
58243;BME280;50118;53.232;8.252;2024-03-02T09:33:35;100248.56;;;10.57;100.00
58243;BME280;50118;53.232;8.252;2024-03-02T09:36:01;100251.06;;;11.27;100.00
58243;BME280;50118;53.232;8.252;2024-03-02T09:38:26;100245.91;;;10.91;100.00
58243;BME280;50118;53.232;8.252;2024-03-02T09:40:52;100253.75;;;11.35;100.00
58243;BME280;50118;53.232;8.252;2024-03-02T09:43:17;100242.38;;;11.25;100.00
58243;BME280;50118;53.232;8.252;2024-03-02T09:45:44;100251.50;;;11.14;100.00
58243;BME280;50118;53.232;8.252;2024-03-02T09:48:10;100254.84;;;11.16;100.00
58243;BME280;50118;53.232;8.252;2024-03-02T09:50:35;100250.97;;;11.53;100.00
58243;BME280;50118;53.232;8.252;2024-03-02T09:53:04;100252.31;;;11.49;100.00
58243;BME280;50118;53.232;8.252;2024-03-02T09:55:29;100255.34;;;11.79;100.00
58243;BME280;50118;53.232;8.252;2024-03-02T09:57:55;100246.72;;;12.02;100.00
58243;BME280;50118;53.232;8.252;2024-03-02T10:00:21;100243.06;;;12.19;100.00
58243;BME280;50118;53.232;8.252;2024-03-02T10:02:46;100243.72;;;12.21;98.52
58243;BME280;50118;53.232;8.252;2024-03-02T10:05:23;100243.50;;;11.90;99.72
58243;BME280;50118;53.232;8.252;2024-03-02T10:08:01;100235.16;;;11.60;98.16
58243;BME280;50118;53.232;8.252;2024-03-02T10:10:38;100237.34;;;11.81;97.97
58243;BME280;50118;53.232;8.252;2024-03-02T10:13:09;100235.34;;;12.32;95.93
58243;BME280;50118;53.232;8.252;2024-03-02T10:15:37;100235.66;;;12.54;92.39
58243;BME280;50118;53.232;8.252;2024-03-02T10:18:13;100233.88;;;12.22;93.96
58243;BME280;50118;53.232;8.252;2024-03-02T10:20:40;100241.72;;;12.23;90.90
58243;BME280;50118;53.232;8.252;2024-03-02T10:23:11;100237.19;;;12.32;97.40
58243;BME280;50118;53.232;8.252;2024-03-02T10:25:37;100242.84;;;12.37;91.24
58243;BME280;50118;53.232;8.252;2024-03-02T10:28:03;100236.19;;;12.41;91.52
58243;BME280;50118;53.232;8.252;2024-03-02T10:30:31;100238.34;;;12.38;91.85
58243;BME280;50118;53.232;8.252;2024-03-02T10:32:57;100240.34;;;12.52;92.65
58243;BME280;50118;53.232;8.252;2024-03-02T10:35:23;100239.00;;;12.48;89.84
58243;BME280;50118;53.232;8.252;2024-03-02T10:37:49;100237.41;;;12.14;88.74
58243;BME280;50118;53.232;8.252;2024-03-02T10:40:15;100237.66;;;12.60;86.83
58243;BME280;50118;53.232;8.252;2024-03-02T10:42:41;100238.66;;;12.59;87.42
58243;BME280;50118;53.232;8.252;2024-03-02T10:45:11;100239.66;;;12.58;86.36
58243;BME280;50118;53.232;8.252;2024-03-02T10:47:38;100238.72;;;12.35;85.54
58243;BME280;50118;53.232;8.252;2024-03-02T10:50:07;100236.69;;;12.37;86.37
58243;BME280;50118;53.232;8.252;2024-03-02T10:52:37;100240.06;;;12.06;85.35
58243;BME280;50118;53.232;8.252;2024-03-02T10:55:05;100239.69;;;12.25;87.26
58243;BME280;50118;53.232;8.252;2024-03-02T10:58:01;100236.53;;;12.30;83.03
58243;BME280;50118;53.232;8.252;2024-03-02T11:00:31;100230.38;;;12.29;83.75
58243;BME280;50118;53.232;8.252;2024-03-02T11:03:05;100237.34;;;12.47;83.29
58243;BME280;50118;53.232;8.252;2024-03-02T11:05:36;100234.88;;;12.12;85.11
58243;BME280;50118;53.232;8.252;2024-03-02T11:08:07;100232.06;;;12.14;82.68
58243;BME280;50118;53.232;8.252;2024-03-02T11:10:38;100229.25;;;12.71;84.41
58243;BME280;50118;53.232;8.252;2024-03-02T11:13:09;100221.81;;;12.42;82.28
58243;BME280;50118;53.232;8.252;2024-03-02T11:15:35;100222.31;;;12.46;81.89
58243;BME280;50118;53.232;8.252;2024-03-02T11:18:05;100227.31;;;12.57;80.23
58243;BME280;50118;53.232;8.252;2024-03-02T11:20:37;100227.63;;;12.54;81.85
58243;BME280;50118;53.232;8.252;2024-03-02T11:23:07;100230.91;;;12.81;79.42
58243;BME280;50118;53.232;8.252;2024-03-02T11:25:33;100232.94;;;12.79;77.12
58243;BME280;50118;53.232;8.252;2024-03-02T11:28:01;100243.72;;;12.94;78.22
58243;BME280;50118;53.232;8.252;2024-03-02T11:33:02;100240.19;;;13.01;77.23
58243;BME280;50118;53.232;8.252;2024-03-02T11:35:44;100243.22;;;12.90;76.94
58243;BME280;50118;53.232;8.252;2024-03-02T11:38:13;100231.06;;;12.87;75.27
58243;BME280;50118;53.232;8.252;2024-03-02T11:40:40;100215.53;;;12.83;77.98
58243;BME280;50118;53.232;8.252;2024-03-02T11:43:06;100229.06;;;12.81;77.97
58243;BME280;50118;53.232;8.252;2024-03-02T11:45:33;100231.75;;;13.21;77.81
58243;BME280;50118;53.232;8.252;2024-03-02T11:47:59;100230.19;;;12.95;76.60
58243;BME280;50118;53.232;8.252;2024-03-02T11:50:35;100237.00;;;13.06;77.05
58243;BME280;50118;53.232;8.252;2024-03-02T11:53:05;100231.44;;;13.16;77.07
58243;BME280;50118;53.232;8.252;2024-03-02T11:55:37;100245.09;;;13.21;78.18
58243;BME280;50118;53.232;8.252;2024-03-02T11:58:04;100234.56;;;12.88;80.48
58243;BME280;50118;53.232;8.252;2024-03-02T12:00:30;100244.94;;;12.75;83.11
58243;BME280;50118;53.232;8.252;2024-03-02T12:03:06;100234.28;;;13.14;78.20
58243;BME280;50118;53.232;8.252;2024-03-02T12:05:32;100238.75;;;13.22;78.21
58243;BME280;50118;53.232;8.252;2024-03-02T12:08:00;100228.09;;;13.14;79.46
58243;BME280;50118;53.232;8.252;2024-03-02T12:10:26;100229.69;;;13.31;78.19
58243;BME280;50118;53.232;8.252;2024-03-02T12:13:03;100230.81;;;13.05;78.02
58243;BME280;50118;53.232;8.252;2024-03-02T12:15:31;100230.06;;;13.28;78.01
58243;BME280;50118;53.232;8.252;2024-03-02T12:17:58;100225.75;;;13.19;77.82
58243;BME280;50118;53.232;8.252;2024-03-02T12:20:26;100232.75;;;13.20;78.26
58243;BME280;50118;53.232;8.252;2024-03-02T12:22:53;100229.06;;;13.21;79.06
58243;BME280;50118;53.232;8.252;2024-03-02T12:25:23;100231.88;;;12.96;77.45
58243;BME280;50118;53.232;8.252;2024-03-02T12:27:50;100224.78;;;13.12;75.45
58243;BME280;50118;53.232;8.252;2024-03-02T12:30:17;100231.16;;;13.02;77.96
58243;BME280;50118;53.232;8.252;2024-03-02T12:32:42;100227.50;;;12.95;76.90
58243;BME280;50118;53.232;8.252;2024-03-02T12:35:10;100228.78;;;13.07;78.79
58243;BME280;50118;53.232;8.252;2024-03-02T12:37:47;100230.81;;;13.05;77.51
58243;BME280;50118;53.232;8.252;2024-03-02T12:40:14;100226.38;;;13.21;78.68
58243;BME280;50118;53.232;8.252;2024-03-02T12:42:43;100224.91;;;13.18;79.19
58243;BME280;50118;53.232;8.252;2024-03-02T12:45:08;100219.44;;;13.12;79.32
58243;BME280;50118;53.232;8.252;2024-03-02T12:47:35;100224.19;;;13.33;77.65
58243;BME280;50118;53.232;8.252;2024-03-02T12:50:01;100229.31;;;13.11;78.42
58243;BME280;50118;53.232;8.252;2024-03-02T12:52:26;100224.88;;;12.87;78.91